Golden Iris — 3FZK4 — position and weather

sailwx.info

Track history (hours):
 
Tides and Currents Weather Stations Pressure Air Temp Water Temp Dewpoint Dewpoint Depression Visibility Wind Speed Wind Dir Waves Ship Positions

Golden Iris

Last reported at 2014-Oct-19 02:13 UTC. Time now 2014-Oct-20 22:48 UTC.
Position N 32°53' E 034°53'.

Length 180 m; draft 6 m.

Type: Passenger vessel. MMSI: 371771000.

Date/timePositionNaut miles runAvg speedWind from/ knotsBaromVisibWave heightAir tempDewpointWater temp
2014-Oct-19 02:13N 32°53' E 034°53'711.3
2014-Oct-19 01:33N 32°54' E 034°44'40014.3
2014-Oct-17 21:33N 35°07' E 027°09'1514.1
2014-Oct-17 20:28N 35°13' E 026°52'1314.5
2014-Oct-17 19:33N 35°17' E 026°37'2813.7
2014-Oct-17 17:32N 35°21' E 026°03'1414.4
2014-Oct-17 16:33N 35°14' E 025°49'1 0.1
2014-Oct-17 05:10N 35°14' E 025°48'15 9.0
2014-Oct-17 03:33N 35°28' E 025°42'1111.2
2014-Oct-17 02:33N 35°36' E 025°32'1212.1
2014-Oct-17 01:33N 35°44' E 025°22'1111.3
2014-Oct-17 00:33N 35°52' E 025°12'1111.2
2014-Oct-16 23:34N 35°60' E 025°02'1211.6
2014-Oct-16 22:33N 36°08' E 024°52'1211.9
2014-Oct-16 21:33N 36°16' E 024°42'1211.9
2014-Oct-16 20:33N 36°25' E 024°31'1111.6
2014-Oct-16 19:33N 36°33' E 024°21'1211.7
2014-Oct-16 18:33N 36°43' E 024°13'1212.4
2014-Oct-16 17:33N 36°54' E 024°07'1212.0
2014-Oct-16 16:33N 37°05' E 024°01'1212.0
2014-Oct-16 15:33N 37°16' E 023°55'1212.0
2014-Oct-16 14:33N 37°27' E 023°49'1110.8
2014-Oct-16 13:33N 37°37' E 023°44'1211.6
2014-Oct-16 12:33N 37°48' E 023°38'9 8.6
2014-Oct-16 11:34N 37°56' E 023°38'0 0.2
2014-Oct-16 10:33N 37°56' E 023°38'0 0.0
2014-Oct-16 09:33N 37°56' E 023°38'0 0.0
2014-Oct-16 08:33N 37°56' E 023°38'0 0.0
2014-Oct-16 07:33N 37°56' E 023°38'0 0.0
2014-Oct-16 06:33N 37°56' E 023°38'0 0.0
2014-Oct-16 05:33N 37°56' E 023°38'0 0.0
2014-Oct-16 04:33N 37°56' E 023°38'0 0.0
2014-Oct-16 03:33N 37°56' E 023°38'0 0.0
2014-Oct-16 02:33N 37°56' E 023°38'0 0.0
2014-Oct-16 01:33N 37°56' E 023°38'0 0.0
2014-Oct-16 00:33N 37°56' E 023°38'0 0.0
2014-Oct-15 23:33N 37°56' E 023°38'0 0.0
2014-Oct-15 22:33N 37°56' E 023°38'0 0.0
2014-Oct-15 21:33N 37°56' E 023°38'0 0.0
2014-Oct-15 20:33N 37°56' E 023°38'0 0.0
2014-Oct-15 19:33N 37°56' E 023°38'0 0.0
2014-Oct-15 18:33N 37°56' E 023°38'0 0.0
2014-Oct-15 17:33N 37°56' E 023°38'0 0.0
2014-Oct-15 16:33N 37°56' E 023°38'0 0.0
2014-Oct-15 15:33N 37°56' E 023°38'0 0.0
2014-Oct-15 14:33N 37°56' E 023°38'0 0.0
2014-Oct-15 13:33N 37°56' E 023°38'0 0.0
2014-Oct-15 12:33N 37°56' E 023°38'0 0.0
2014-Oct-15 11:33N 37°56' E 023°38'0 0.0
2014-Oct-15 10:33N 37°56' E 023°38'0 0.0
2014-Oct-15 09:33N 37°56' E 023°38'2 1.6
2014-Oct-15 08:33N 37°55' E 023°37'2 2.1
2014-Oct-15 07:34N 37°53' E 023°38'9 9.1
2014-Oct-15 06:33N 37°45' E 023°42'1010.1
2014-Oct-15 05:33N 37°38' E 023°52'1211.5
2014-Oct-15 04:30N 37°33' E 024°06'1010.9
2014-Oct-15 03:33N 37°30' E 024°18'1111.4
2014-Oct-15 02:33N 37°32' E 024°32'1111.3
2014-Oct-15 01:33N 37°32' E 024°46'1110.7
2014-Oct-15 00:33N 37°30' E 024°60'1111.3
2014-Oct-14 23:33N 37°22' E 025°10'1111.0
2014-Oct-14 22:33N 37°20' E 025°23'1211.9
2014-Oct-14 21:33N 37°19' E 025°38'1111.5
2014-Oct-14 20:33N 37°18' E 025°52'1111.4
2014-Oct-14 19:33N 37°17' E 026°07'1211.5
2014-Oct-14 18:33N 37°16' E 026°21'1110.9
2014-Oct-14 17:33N 37°15' E 026°35'2 0.1
2014-Oct-14 06:29N 37°17' E 026°35'1010.3
2014-Oct-14 05:32N 37°07' E 026°36'2813.9
2014-Oct-14 03:32N 36°40' E 026°47'  
2014-Oct-09 15:31N 34°37' E 032°18'1212.4
2014-Oct-09 14:33N 34°33' E 032°32'1312.5
2014-Oct-09 13:31N 34°32' E 032°48'1212.5
2014-Oct-09 12:33N 34°31' E 033°02'8 7.9
2014-Oct-09 11:33N 34°39' E 033°01'0 0.3
2014-Oct-09 10:31N 34°39' E 033°01'0 0.0
2014-Oct-09 09:31N 34°39' E 033°01'0 0.0
2014-Oct-09 08:31N 34°39' E 033°01'0 0.0
2014-Oct-09 07:31N 34°39' E 033°01'0 0.0
2014-Oct-09 06:31N 34°39' E 033°01'0 0.0
2014-Oct-09 05:31N 34°39' E 033°01'0 0.0
2014-Oct-09 04:28N 34°39' E 033°01'0 0.2
2014-Oct-09 03:32N 34°39' E 033°01'4 4.2
2014-Oct-09 02:33N 34°37' E 033°05'  
Track history (hours):
 
Tides and Currents Weather Stations Pressure Air Temp Water Temp Dewpoint Dewpoint Depression Visibility Wind Speed Wind Dir Waves Ship Positions

Golden Iris

Last reported at 2014-Oct-19 02:13 UTC. Time now 2014-Oct-20 22:48 UTC.
Position N 32°53' E 034°53'.

Length 180 m; draft 6 m.

Type: Passenger vessel. MMSI: 371771000.

Date/timePositionNaut miles runAvg speedWind from/ knotsBaromVisibWave heightAir tempDewpointWater temp
2014-Oct-19 02:13N 32°53' E 034°53'711.3
2014-Oct-19 01:33N 32°54' E 034°44'40014.3
2014-Oct-17 21:33N 35°07' E 027°09'1514.1
2014-Oct-17 20:28N 35°13' E 026°52'1314.5
2014-Oct-17 19:33N 35°17' E 026°37'2813.7
2014-Oct-17 17:32N 35°21' E 026°03'1414.4
2014-Oct-17 16:33N 35°14' E 025°49'1 0.1
2014-Oct-17 05:10N 35°14' E 025°48'15 9.0
2014-Oct-17 03:33N 35°28' E 025°42'1111.2
2014-Oct-17 02:33N 35°36' E 025°32'1212.1
2014-Oct-17 01:33N 35°44' E 025°22'1111.3
2014-Oct-17 00:33N 35°52' E 025°12'1111.2
2014-Oct-16 23:34N 35°60' E 025°02'1211.6
2014-Oct-16 22:33N 36°08' E 024°52'1211.9
2014-Oct-16 21:33N 36°16' E 024°42'1211.9
2014-Oct-16 20:33N 36°25' E 024°31'1111.6
2014-Oct-16 19:33N 36°33' E 024°21'1211.7
2014-Oct-16 18:33N 36°43' E 024°13'1212.4
2014-Oct-16 17:33N 36°54' E 024°07'1212.0
2014-Oct-16 16:33N 37°05' E 024°01'1212.0
2014-Oct-16 15:33N 37°16' E 023°55'1212.0
2014-Oct-16 14:33N 37°27' E 023°49'1110.8
2014-Oct-16 13:33N 37°37' E 023°44'1211.6
2014-Oct-16 12:33N 37°48' E 023°38'9 8.6
2014-Oct-16 11:34N 37°56' E 023°38'0 0.2
2014-Oct-16 10:33N 37°56' E 023°38'0 0.0
2014-Oct-16 09:33N 37°56' E 023°38'0 0.0
2014-Oct-16 08:33N 37°56' E 023°38'0 0.0
2014-Oct-16 07:33N 37°56' E 023°38'0 0.0
2014-Oct-16 06:33N 37°56' E 023°38'0 0.0
2014-Oct-16 05:33N 37°56' E 023°38'0 0.0
2014-Oct-16 04:33N 37°56' E 023°38'0 0.0
2014-Oct-16 03:33N 37°56' E 023°38'0 0.0
2014-Oct-16 02:33N 37°56' E 023°38'0 0.0
2014-Oct-16 01:33N 37°56' E 023°38'0 0.0
2014-Oct-16 00:33N 37°56' E 023°38'0 0.0
2014-Oct-15 23:33N 37°56' E 023°38'0 0.0
2014-Oct-15 22:33N 37°56' E 023°38'0 0.0
2014-Oct-15 21:33N 37°56' E 023°38'0 0.0
2014-Oct-15 20:33N 37°56' E 023°38'0 0.0
2014-Oct-15 19:33N 37°56' E 023°38'0 0.0
2014-Oct-15 18:33N 37°56' E 023°38'0 0.0
2014-Oct-15 17:33N 37°56' E 023°38'0 0.0
2014-Oct-15 16:33N 37°56' E 023°38'0 0.0
2014-Oct-15 15:33N 37°56' E 023°38'0 0.0
2014-Oct-15 14:33N 37°56' E 023°38'0 0.0
2014-Oct-15 13:33N 37°56' E 023°38'0 0.0
2014-Oct-15 12:33N 37°56' E 023°38'0 0.0
2014-Oct-15 11:33N 37°56' E 023°38'0 0.0
2014-Oct-15 10:33N 37°56' E 023°38'0 0.0
2014-Oct-15 09:33N 37°56' E 023°38'2 1.6
2014-Oct-15 08:33N 37°55' E 023°37'2 2.1
2014-Oct-15 07:34N 37°53' E 023°38'9 9.1
2014-Oct-15 06:33N 37°45' E 023°42'1010.1
2014-Oct-15 05:33N 37°38' E 023°52'1211.5
2014-Oct-15 04:30N 37°33' E 024°06'1010.9
2014-Oct-15 03:33N 37°30' E 024°18'1111.4
2014-Oct-15 02:33N 37°32' E 024°32'1111.3
2014-Oct-15 01:33N 37°32' E 024°46'1110.7
2014-Oct-15 00:33N 37°30' E 024°60'1111.3
2014-Oct-14 23:33N 37°22' E 025°10'1111.0
2014-Oct-14 22:33N 37°20' E 025°23'1211.9
2014-Oct-14 21:33N 37°19' E 025°38'1111.5
2014-Oct-14 20:33N 37°18' E 025°52'1111.4
2014-Oct-14 19:33N 37°17' E 026°07'1211.5
2014-Oct-14 18:33N 37°16' E 026°21'1110.9
2014-Oct-14 17:33N 37°15' E 026°35'2 0.1
2014-Oct-14 06:29N 37°17' E 026°35'1010.3
2014-Oct-14 05:32N 37°07' E 026°36'2813.9
2014-Oct-14 03:32N 36°40' E 026°47'  
2014-Oct-09 15:31N 34°37' E 032°18'1212.4
2014-Oct-09 14:33N 34°33' E 032°32'1312.5
2014-Oct-09 13:31N 34°32' E 032°48'1212.5
2014-Oct-09 12:33N 34°31' E 033°02'8 7.9
2014-Oct-09 11:33N 34°39' E 033°01'0 0.3
2014-Oct-09 10:31N 34°39' E 033°01'0 0.0
2014-Oct-09 09:31N 34°39' E 033°01'0 0.0
2014-Oct-09 08:31N 34°39' E 033°01'0 0.0
2014-Oct-09 07:31N 34°39' E 033°01'0 0.0
2014-Oct-09 06:31N 34°39' E 033°01'0 0.0
2014-Oct-09 05:31N 34°39' E 033°01'0 0.0
2014-Oct-09 04:28N 34°39' E 033°01'0 0.2
2014-Oct-09 03:32N 34°39' E 033°01'4 4.2
2014-Oct-09 02:33N 34°37' E 033°05'  

Dump ship's entire track history